KMJQ

Jackson Municipal Airport

Jackson, Minnesota, USA
METAR KMJQ 151335Z AUTO 19007KT 10SM SCT100 M05/M07 A3012 RMK AO2
Observed Flight Rules
Dec-15 @ 13:35 UTC (9 minutes ago) Visual Flight Rules
Wind Visibility Clouds
190° at 7 knots 10 miles
  • Scattered at 10,000' AGL
Temperatures Readings
Current -5°C / 23°F
Dewpoint -7°C / 19°F
Humidity 86%
Altimeter 30.12" Hg
Pressure 1020 hPa
Elevation 441
METAR KMJQ 151335Z AUTO 19007KT 10SM SCT100 M05/M07 A3012 RMK AO2
Observed Flight Rules
Dec-15 @ 13:35 UTC
(9 minutes ago)
VFR
Wind Visibility
190° at 7 knots 10 miles
Clouds
  • Scattered at 10,000' AGL
Temperature Dewpoint
-5°C / 23°F -7°C / 19°F
Humidity Altimeter Pressure
86% 30.12" Hg 1020 hPa